Asaph, Pennsylvania
Current Conditions -  °F | °C
As of 12:35 PM on Monday 24 Nov 2014 (Local Time) from KN38 Reporting Station
Scattered Clouds Scattered Clouds  
Wind Chill: 63°   Ceiling: Unl
Heat Index: 63°   Visibility: 10mi
Dew Point: 50°   Wind: 30mph
Humidity: 63%   Direction: 190°S
Pressure: 29.42"   Gusts: 45mph
Location:  41.7308°N, 77.349°W
Report Text: KN38 241735Z AUTO 19026G39KT 10SM FEW030 SCT036 SCT050 17/10 A2942 RMK AO2
Loading
Personal Weather Stations






























Interactive Weather Map New forecast layout! Learn more

10-Day Weather Forecast

Advertisements
Track Severe Weather on mobile